Latest Weather Observations for Grove - Huon Valley - Tasmania

Station Details ID: 094220 Name: GROVE (RESEARCH STATION) Lat: -42.99 Lon: 147.07 Height: 65.0 m
Data from the previous 72 hours : Issued at 12:41 pm EST Tuesday 22 May 2018
Date/Time
EST
Temp
°C
App
Temp
°C
Dew
Point
°C
Rel
Hum
%
Delta-T
°C
Wind Press
QNH
hPa
Press
MSL
hPa
Rain since
9am
mm
Dir  Spd
km/h
Gust
km/h
Spd
kts
Gust
kts
22/12:30pm 12.1 4.4 2.2 50 4.3 SSW 32 52 17 28 0.0
22/12:00pm 12.1 4.7 1.6 48 4.5 SW 30 54 16 29 0.0
22/11:34am 12.2 4.5 2.3 51 4.3 SW 32 52 17 28 0.0
22/11:30am 12.1 4.5 2.7 52 4.1 SW 32 54 17 29 0.0
22/11:00am 11.7 4.1 2.8 54 3.9 SW 32 50 17 27 0.0
22/10:30am 11.8 3.9 0.8 47 4.6 WSW 32 52 17 28 0.0
22/10:00am 11.8 3.8 0.5 46 4.7 SW 32 52 17 28 0.0
22/09:30am 11.7 3.7 0.3 45 4.7 SW 32 57 17 31 0.0
22/09:02am 11.3 4.1 0.4 47 4.5 SW 28 50 15 27 0.0
22/09:01am 11.3 4.1 0.4 47 4.5 SW 28 50 15 27 0.0
22/09:00am 11.4 4.5 0.2 46 4.6 SW 26 43 14 23 0.0
22/08:30am 10.8 4.2 2.1 55 3.7 SW 26 44 14 24 0.0
22/08:12am 10.7 3.8 2.3 56 3.6 SW 28 46 15 25 0.0
22/08:11am 10.7 3.8 2.3 56 3.6 SW 28 46 15 25 0.0
22/08:00am 10.6 4.8 2.2 56 3.6 SW 22 33 12 18 0.0
22/07:30am 10.6 5.3 1.6 53 3.8 SW 19 30 10 16 0.0
22/07:00am 10.6 5 3.3 60 3.2 SW 22 46 12 25 0.0
22/06:47am 10.8 4 3.3 60 3.3 SW 28 48 15 26 0.0
22/06:46am 10.8 4 3.3 60 3.3 SW 28 48 15 26 0.0
22/06:30am 10.9 6.1 2.8 57 3.5 SW 17 28 9 15 0.0
22/06:00am 11 6.2 2.7 56 3.6 SSW 17 28 9 15 0.0
22/05:30am 11.1 6.5 3.7 60 3.3 SSW 17 33 9 18 0.0
22/05:00am 11.4 6.3 2.9 56 3.7 SSW 19 37 10 20 0.0
22/04:30am 12 6.1 1.4 48 4.5 SW 22 39 12 21 0.0
22/04:00am 12.1 6.6 0.9 46 4.7 WSW 19 37 10 20 0.0
22/03:40am 12.4 4.4 0.4 43 5 SSW 32 50 17 27 0.0
22/03:39am 12.4 4.4 0.4 43 5 SSW 32 50 17 27 0.0
22/03:30am 11.8 7.9 1.4 49 4.4 SW 11 28 6 15 0.0
22/03:00am 12.3 5.9 0.9 45 4.8 W 24 32 13 17 0.0
22/02:30am 12.3 6.2 0.6 44 4.9 WSW 22 39 12 21 0.0
22/02:00am 12.8 7.4 1.3 45 4.9 WSW 19 44 10 24 0.0
22/01:30am 12.4 7.6 5.8 64 3.1 SW 20 37 11 20 0.0
22/01:00am 13.4 7.6 4.2 53 4.2 SW 24 48 13 26 0.0
22/12:49am 13.2 5.8 4.2 54 4.1 W 32 56 17 30 0.0
22/12:30am 13.2 7.4 4.2 54 4.1 W 24 39 13 21 0.0
22/12:00am 12.9 9.1 5.7 61 3.4 SW 15 30 8 16 0.0
21/11:30pm 12.7 8.2 7.1 69 2.7 SSW 20 28 11 15 0.0
21/11:00pm 13.1 10.2 6.7 65 3.1 SSE 11 17 6 9 0.0
21/10:30pm 13.4 8.7 6 61 3.5 WSW 20 28 11 15 0.0
21/10:00pm 13.5 8.9 5.7 59 3.7 WSW 19 44 10 24 0.0
21/09:30pm 13.3 9.1 5.9 61 3.5 S 17 37 9 20 0.0
21/09:00pm 13.8 7.5 5.5 57 3.9 SW 28 46 15 25 0.0
21/08:41pm 14 7.6 5.3 55 4.1 SW 28 46 15 25 0.0
21/08:30pm 14.1 7.4 5.4 56 4.1 SSW 30 44 16 24 0.0
21/08:00pm 14.2 7.9 5.8 57 4 SW 28 56 15 30 0.0
21/07:51pm 14.3 8 5.7 56 4.1 SW 28 56 15 30 0.0
21/07:30pm 14.3 8.4 5.7 56 4.1 SW 26 44 14 24 0.0
21/07:06pm 14 7.7 5.5 56 4 SW 28 50 15 27 0.0
21/07:05pm 14 7.7 5.5 56 4 SW 28 50 15 27 0.0
21/07:00pm 14 7.7 5.5 56 4 SW 28 44 15 24 0.0
21/06:40pm 14 7.6 5.3 55 4.1 SW 28 46 15 25 0.0
21/06:39pm 14 7.6 5.3 55 4.1 SW 28 46 15 25 0.0
21/06:30pm 13.9 8.3 5.2 55 4.1 SW 24 39 13 21 0.0
21/06:00pm 13.8 7.8 5.3 56 4 WSW 26 43 14 23 0.0
21/05:52pm 14 7.5 4.8 54 4.3 SW 28 59 15 32 0.0
21/05:30pm 13.8 9 5.5 57 3.9 SW 20 39 11 21 0.0
21/05:00pm 13.6 9.7 5.3 57 3.9 SW 15 22 8 12 0.0
21/04:30pm 13.3 9.4 5.4 59 3.7 SW 15 22 8 12 0.0
21/04:00pm 13.4 7.2 4.5 55 4.1 SW 26 50 14 27 0.0
21/03:38pm 13.3 6.7 4.1 53 4.2 SW 28 46 15 25 0.0
21/03:37pm 13.3 6.7 4.1 53 4.2 SW 28 46 15 25 0.0
21/03:30pm 13.4 6.4 4 53 4.3 SW 30 46 16 25 0.0
21/03:00pm 13.5 6.4 3.8 52 4.4 SW 30 52 16 28 0.0
21/02:30pm 14 7.4 4.2 51 4.5 SW 28 48 15 26 0.0
21/02:15pm 14.2 7.7 4.5 52 4.5 SW 28 48 15 26 0.0
21/02:14pm 14.2 7.7 4.5 52 4.5 SW 28 48 15 26 0.0
21/02:00pm 14.2 8.1 4.8 53 4.4 SW 26 41 14 22 0.0
21/01:30pm 14.5 9.2 4.9 52 4.5 SW 22 46 12 25 0.0
21/01:00pm 14.4 9.6 4.8 52 4.5 SW 19 35 10 19 0.0
21/12:34pm 14.2 7.6 4.2 51 4.6 SW 28 46 15 25 0.0
21/12:30pm 14.5 8.7 4.6 51 4.6 SW 24 43 13 23 0.0
21/12:00pm 13.8 8.1 5 55 4.1 WSW 24 46 13 25 0.0
21/11:30am 13.1 7.2 4.1 54 4.1 WSW 24 44 13 24 0.0
21/11:00am 12.6 10.4 5.3 61 3.4 WNW 6 13 3 7 0.0
21/10:30am 12.7 9.7 4.1 56 3.9 NW 9 22 5 12 0.0
21/10:00am 12.7 9.6 3.6 54 4.1 ESE 9 17 5 9 0.0
21/09:30am 12 9.2 3.2 55 3.9 SSW 7 9 4 5 0.0
21/09:28am 12.1 8.1 3 53 4 W 13 7 0.0
21/09:00am 11.7 7.9 3.9 59 3.5 SW 13 28 7 15 4.0
21/08:30am 11.5 8.8 3.6 58 3.5 ESE 7 15 4 8 4.0
21/08:00am 11 7.6 3.8 61 3.2 E 11 17 6 9 4.0
21/07:30am 11.4 8.5 2.7 55 3.8 E 7 13 4 7 4.0
21/07:00am 11.2 5.1 3 57 3.6 WSW 24 33 13 18 4.0
21/06:30am 10.8 6.1 3 58 3.4 WSW 17 28 9 15 4.0
21/06:00am 10.3 5.4 2.3 57 3.4 WSW 17 26 9 14 4.0
21/05:30am 10.6 4.7 1.9 55 3.7 SW 22 43 12 23 4.0
21/05:00am 10.3 5.3 3.7 63 2.9 WSW 19 33 10 18 4.0
21/04:30am 10.3 6.2 4.2 66 2.7 WSW 15 22 8 12 4.0
21/04:00am 9.9 6.6 4.3 68 2.5 WSW 11 20 6 11 4.0
21/03:30am 8.6 7.3 6 84 1.2 S 2 11 1 6 4.0
21/03:00am 7.8 6.8 7.2 96 0.3 N 2 7 1 4 4.0
21/02:30am 8 6.1 6.9 93 0.5 WSW 6 11 3 6 4.0
21/02:00am 8.4 7.3 6.7 89 0.8 SSW 2 9 1 5 4.0
21/01:30am 8.1 6.6 7 93 0.5 NW 4 9 2 5 4.0
21/01:00am 8.2 6.2 7.1 93 0.5 WNW 7 11 4 6 4.0
21/12:30am 9.2 7.1 6.6 84 1.2 S 7 13 4 7 4.0
21/12:00am 9.7 7.5 6.3 79 1.6 SW 7 13 4 7 4.0
20/11:30pm 9.7 6.8 6.7 81 1.4 SSW 11 17 6 9 4.0
20/11:00pm 10.6 6.4 5.6 71 2.3 SW 17 28 9 15 3.8
20/10:30pm 9.1 6.9 7.8 92 0.6 W 9 17 5 9 3.8
20/10:00pm 8.6 7.8 8.2 97 0.2 ENE 2 6 1 3 3.8
20/09:30pm 9.1 6.7 8.7 97 0.2 ENE 11 13 6 7 3.8
20/09:00pm 9 7.5 8.6 97 0.2 N 6 9 3 5 3.8
20/08:30pm 9.2 7.2 8.6 96 0.3 NNW 9 13 5 7 3.8
20/08:00pm 9.3 7.9 8.9 97 0.2 N 6 11 3 6 3.8
20/07:30pm 9.3 7.9 8.9 97 0.2 E 6 11 3 6 3.2
20/07:00pm 9.2 7.6 8.6 96 0.3 N 7 9 4 5 0.0
20/06:30pm 9.5 8.8 8.5 93 0.5 SW 2 7 1 4 0.0
20/06:00pm 9.5 8 8.5 93 0.5 S 6 7 3 4 0.0
20/05:30pm 9.8 9.1 8.6 92 0.6 NE 2 9 1 5 0.0
20/05:00pm 9.9 8.9 8.7 92 0.6 WNW 4 7 2 4 0.0
20/04:30pm 10.1 9.8 8.7 91 0.7 CALM 0 0 0 0 0.0
20/04:00pm 10.3 9.3 8.7 90 0.8 N 4 7 2 4 0.0
20/03:30pm 10.7 9.1 8.2 84 1.2 S 6 7 3 4 0.0
20/03:00pm 11 8.7 7.5 79 1.7 S 9 15 5 8 0.0
20/02:30pm 12.2 10 6.1 66 2.9 SSW 7 11 4 6 0.0
20/02:00pm 12.6 9.3 4.5 58 3.7 SW 11 17 6 9 0.0
20/01:30pm 13.4 9.6 4 53 4.3 SW 13 22 7 12 0.0
20/01:00pm 13.8 9.5 3.1 48 4.8 SW 15 24 8 13 0.0
20/12:30pm 13.3 8.5 2.7 48 4.7 SSW 17 26 9 14 0.0
20/12:00pm 13.2 7.9 2.8 49 4.6 SW 20 37 11 20 0.0
20/11:48am 13 6.1 2.8 50 4.5 SW 28 46 15 25 0.0
20/11:30am 12.7 8 3 51 4.3 S 17 37 9 20 0.0
20/11:00am 12.7 7.8 1.8 47 4.7 S 17 30 9 16 0.0
20/10:30am 13 7.5 0.3 41 5.3 S 19 35 10 19 0.0
20/10:00am 12.5 6.4 0.2 43 5.1 S 22 35 12 19 0.0
20/09:30am 12.1 6.3 -0.1 43 5 SSW 20 32 11 17 0.0
20/09:00am 11.9 6.7 0.3 45 4.8 S 17 30 9 16 0.0
20/08:30am 11.5 6.2 1.6 50 4.2 S 19 30 10 16 0.0
20/08:00am 11.5 6.3 2.2 53 4 S 19 28 10 15 0.0
20/07:30am 11.6 7.8 1.8 51 4.2 S 11 24 6 13 0.0
20/07:00am 11.4 7.6 1.8 51 4.1 SSW 11 19 6 10 0.0
20/06:30am 11.7 7.9 1.6 50 4.3 SW 11 19 6 10 0.0
20/06:00am 11.9 7.6 0.9 47 4.6 SW 13 24 7 13 0.0
20/05:30am 11.7 6.5 2.5 53 4 W 19 32 10 17 0.0
20/05:00am 12 5.7 3.7 57 3.7 SW 26 50 14 27 0.0
20/04:30am 11.5 6.5 4.4 61 3.2 SSW 20 33 11 18 0.0
20/04:00am 11.6 6.5 4 59 3.4 SSW 20 33 11 18 0.0
20/03:30am 11.8 6.1 5.1 63 3.1 SSW 24 37 13 20 0.0
20/03:00am 12.1 7.3 4.7 60 3.4 SSW 19 28 10 15 0.0
20/02:30am 12.8 5.8 4.2 56 3.9 SSW 30 59 16 32 0.0
20/02:27am 12.8 6.2 4.2 56 3.9 SW 28 59 15 32 0.0
20/02:26am 12.8 6.2 4.2 56 3.9 SW 28 59 15 32 0.0
20/02:00am 12.7 6.9 4.4 57 3.8 SW 24 39 13 21 0.0
20/01:46am 13.1 6.4 3.5 52 4.3 SW 28 46 15 25 0.0
20/01:30am 13.2 6.7 2.8 49 4.6 SW 26 44 14 24 0.0
20/01:03am 13.2 6.3 4.8 56 3.9 SW 30 56 16 30 0.0
20/01:02am 13.2 6.3 4.8 56 3.9 SW 30 56 16 30 0.0
20/01:00am 13.3 6.5 5.2 58 3.8 SW 30 46 16 25 0.0
20/12:39am 13.5 7.2 5.9 60 3.6 SW 28 50 15 27 0.0
20/12:38am 13.5 7.2 5.9 60 3.6 SW 28 50 15 27 0.0
20/12:30am 13.7 7.8 5.7 58 3.8 SW 26 41 14 22 0.0
20/12:14am 13.8 7.4 5 55 4.1 SW 28 56 15 30 0.0
20/12:00am 13.9 7.9 5.4 56 4 SW 26 44 14 24 0.0
19/11:40pm 14 7.7 5.5 56 4 WSW 28 50 15 27 0.0
19/11:30pm 13.8 7.8 5.5 57 3.9 SW 26 50 14 27 0.0
19/11:00pm 13.7 10.1 5.2 56 4 SW 13 28 7 15 0.0
19/10:30pm 13.4 8.7 5.3 58 3.8 WNW 19 33 10 18 0.0
19/10:00pm 13.5 9.2 5.2 57 3.9 SSW 17 37 9 20 0.0
19/09:30pm 13.4 7.8 5.3 58 3.8 SW 24 35 13 19 0.0
19/09:17pm 13.5 7 4.9 56 4 SW 28 50 15 27 0.0
19/09:12pm 13.5 6.3 4.9 56 4 SW 32 50 17 27 0.0
19/09:00pm 13.2 10 5.3 58 3.7 SSW 11 19 6 10 0.0
19/08:47pm 13.2 6.9 5.5 59 3.6 SSW 28 50 15 27 0.0
19/08:30pm 13.1 7.5 5.2 58 3.7 SSW 24 33 13 18 0.0
19/08:00pm 13.2 6.8 5.3 58 3.7 SW 28 50 15 27 0.0
19/07:59pm 13.2 6.1 5.3 58 3.7 SW 32 50 17 27 0.0
19/07:58pm 13.2 5.5 5.3 58 3.7 SSW 35 50 19 27 0.0
19/07:30pm 13 8.6 5 58 3.7 SSW 17 32 9 17 0.0
19/07:00pm 12.6 9.4 5.3 61 3.4 WSW 11 24 6 13 0.0
19/06:30pm 12.4 9.2 5 60 3.4 WSW 11 28 6 15 0.0
19/06:00pm 12.5 9.3 5.2 61 3.4 WSW 11 22 6 12 0.0
19/05:30pm 12.5 8.1 4.9 60 3.5 W 17 39 9 21 0.0
19/05:00pm 12.4 10.3 5.6 63 3.2 E 6 15 3 8 0.0
19/04:30pm 12.9 11.5 5.7 61 3.4 SSW 2 11 1 6 0.0
19/04:00pm 13.1 8.4 5.2 58 3.7 W 19 32 10 17 0.0
19/03:30pm 13.5 8.7 4.6 55 4.1 W 19 30 10 16 0.0
19/03:00pm 13.3 8.4 4.9 57 3.9 WSW 20 37 11 20 0.0
19/02:41pm 13.4 6.4 4.2 53 4.2 W 30 37 16 20 0.0
19/02:30pm 13.2 10.4 5.3 58 3.7 W 9 17 5 9 0.0
19/02:00pm 13.2 9.6 5 57 3.8 WSW 13 24 7 13 0.0
19/01:30pm 12.9 8.6 5.2 59 3.6 SW 17 28 9 15 0.0
19/01:00pm 12.7 8.5 5.7 62 3.3 SW 17 30 9 16 0.0
Data Provided by Australian Government Bureau of Meteorology